Four Corners, California
Current Conditions -  °F | °C
As of 7:55 PM on Wednesday 22 Oct 2014 (Local Time) from K9L2 Reporting Station
Clear Clear  
Wind Chill: 67°   Ceiling: Unl
Heat Index: 67°   Visibility: 10mi
Dew Point: 25°   Wind: 6mph
Humidity: 21%   Direction: 300°WNW
Pressure: 30.01"   Gusts: NA
Location:  35.0434°N, 117.645°W
Report Text: K9L2 230255Z AUTO 30005KT 10SM CLR 19/M04 A3001 RMK AO2 SLP158 T01941039 53010 $
Loading
Personal Weather Stations






























Interactive Weather Map
Tropical Storm Tracking
New forecast layout! Learn more

10-Day Weather Forecast

Advertisements
Track Severe Weather on mobile